sensor_id;sensor_type;location;lat;lon;timestamp;temperature;humidity
81800;DHT22;71195;52.528;5.704;2023-11-19T00:01:49;14.60;74.30
81800;DHT22;71195;52.528;5.704;2023-11-19T00:04:18;14.60;74.20
81800;DHT22;71195;52.528;5.704;2023-11-19T00:06:50;14.60;74.20
81800;DHT22;71195;52.528;5.704;2023-11-19T00:09:19;14.60;74.20
81800;DHT22;71195;52.528;5.704;2023-11-19T00:11:48;14.70;74.20
81800;DHT22;71195;52.528;5.704;2023-11-19T00:14:17;14.70;74.10
81800;DHT22;71195;52.528;5.704;2023-11-19T00:16:46;14.70;74.20
81800;DHT22;71195;52.528;5.704;2023-11-19T00:19:17;14.70;74.20
81800;DHT22;71195;52.528;5.704;2023-11-19T00:21:46;14.70;74.20
81800;DHT22;71195;52.528;5.704;2023-11-19T00:24:18;14.70;74.20
81800;DHT22;71195;52.528;5.704;2023-11-19T00:26:47;14.70;74.10
81800;DHT22;71195;52.528;5.704;2023-11-19T00:29:16;14.70;74.10
81800;DHT22;71195;52.528;5.704;2023-11-19T00:31:46;14.70;74.10
81800;DHT22;71195;52.528;5.704;2023-11-19T00:34:15;14.70;74.00
81800;DHT22;71195;52.528;5.704;2023-11-19T00:36:47;14.70;74.10
81800;DHT22;71195;52.528;5.704;2023-11-19T00:39:19;14.70;74.10
81800;DHT22;71195;52.528;5.704;2023-11-19T00:41:48;14.70;74.10
81800;DHT22;71195;52.528;5.704;2023-11-19T00:44:18;14.70;74.10
81800;DHT22;71195;52.528;5.704;2023-11-19T00:46:47;14.70;74.10
81800;DHT22;71195;52.528;5.704;2023-11-19T00:49:17;14.70;74.20
81800;DHT22;71195;52.528;5.704;2023-11-19T00:51:46;14.60;74.20
81800;DHT22;71195;52.528;5.704;2023-11-19T00:54:19;14.70;74.10
81800;DHT22;71195;52.528;5.704;2023-11-19T00:56:51;14.70;74.10
81800;DHT22;71195;52.528;5.704;2023-11-19T00:59:21;14.70;74.00
81800;DHT22;71195;52.528;5.704;2023-11-19T01:01:50;14.60;74.10
81800;DHT22;71195;52.528;5.704;2023-11-19T01:04:19;14.60;74.20
81800;DHT22;71195;52.528;5.704;2023-11-19T01:06:50;14.60;74.10
81800;DHT22;71195;52.528;5.704;2023-11-19T01:09:23;14.60;74.10
81800;DHT22;71195;52.528;5.704;2023-11-19T01:11:53;14.60;74.10
81800;DHT22;71195;52.528;5.704;2023-11-19T01:14:23;14.60;74.10
81800;DHT22;71195;52.528;5.704;2023-11-19T01:16:52;14.50;74.20
81800;DHT22;71195;52.528;5.704;2023-11-19T01:19:22;14.50;74.10
81800;DHT22;71195;52.528;5.704;2023-11-19T01:21:51;14.50;74.10
81800;DHT22;71195;52.528;5.704;2023-11-19T01:24:23;14.50;74.10
81800;DHT22;71195;52.528;5.704;2023-11-19T01:26:54;14.50;74.10
81800;DHT22;71195;52.528;5.704;2023-11-19T01:29:26;14.50;74.10
81800;DHT22;71195;52.528;5.704;2023-11-19T01:31:55;14.40;74.10
81800;DHT22;71195;52.528;5.704;2023-11-19T01:34:24;14.40;74.10
81800;DHT22;71195;52.528;5.704;2023-11-19T01:36:53;14.40;74.00
81800;DHT22;71195;52.528;5.704;2023-11-19T01:39:25;14.30;74.00
81800;DHT22;71195;52.528;5.704;2023-11-19T01:41:54;14.30;74.10
81800;DHT22;71195;52.528;5.704;2023-11-19T01:44:23;14.30;74.10
81800;DHT22;71195;52.528;5.704;2023-11-19T01:46:52;14.30;74.00
81800;DHT22;71195;52.528;5.704;2023-11-19T01:49:22;14.30;74.10
81800;DHT22;71195;52.528;5.704;2023-11-19T01:51:51;14.20;74.10
81800;DHT22;71195;52.528;5.704;2023-11-19T01:54:20;14.20;74.10
81800;DHT22;71195;52.528;5.704;2023-11-19T01:56:53;14.20;74.00
81800;DHT22;71195;52.528;5.704;2023-11-19T01:59:24;14.20;74.00
81800;DHT22;71195;52.528;5.704;2023-11-19T02:01:54;14.20;73.90
81800;DHT22;71195;52.528;5.704;2023-11-19T02:04:24;14.30;73.90
81800;DHT22;71195;52.528;5.704;2023-11-19T02:06:56;14.20;73.90
81800;DHT22;71195;52.528;5.704;2023-11-19T02:09:26;14.30;73.80
81800;DHT22;71195;52.528;5.704;2023-11-19T02:11:58;14.30;73.80
81800;DHT22;71195;52.528;5.704;2023-11-19T02:14:28;14.30;73.80
81800;DHT22;71195;52.528;5.704;2023-11-19T02:16:58;14.20;73.80
81800;DHT22;71195;52.528;5.704;2023-11-19T02:19:28;14.20;73.80
81800;DHT22;71195;52.528;5.704;2023-11-19T02:21:57;14.20;73.80
81800;DHT22;71195;52.528;5.704;2023-11-19T02:24:28;14.20;73.80
81800;DHT22;71195;52.528;5.704;2023-11-19T02:27:10;14.20;73.80
81800;DHT22;71195;52.528;5.704;2023-11-19T02:29:45;14.10;73.90
81800;DHT22;71195;52.528;5.704;2023-11-19T02:32:16;14.10;73.90
81800;DHT22;71195;52.528;5.704;2023-11-19T02:34:46;14.10;73.90
81800;DHT22;71195;52.528;5.704;2023-11-19T02:37:15;14.10;73.90
81800;DHT22;71195;52.528;5.704;2023-11-19T02:39:45;14.10;73.90
81800;DHT22;71195;52.528;5.704;2023-11-19T02:42:15;14.10;73.80
81800;DHT22;71195;52.528;5.704;2023-11-19T02:44:47;14.10;73.80
81800;DHT22;71195;52.528;5.704;2023-11-19T02:47:16;14.10;73.80
81800;DHT22;71195;52.528;5.704;2023-11-19T02:49:45;14.10;73.70
81800;DHT22;71195;52.528;5.704;2023-11-19T02:52:15;14.10;73.70
81800;DHT22;71195;52.528;5.704;2023-11-19T02:54:45;14.10;73.70
81800;DHT22;71195;52.528;5.704;2023-11-19T02:57:14;14.10;73.70
81800;DHT22;71195;52.528;5.704;2023-11-19T02:59:47;14.10;73.60
81800;DHT22;71195;52.528;5.704;2023-11-19T03:02:17;14.10;73.60
81800;DHT22;71195;52.528;5.704;2023-11-19T03:04:47;14.10;73.60
81800;DHT22;71195;52.528;5.704;2023-11-19T03:07:16;14.10;73.60
81800;DHT22;71195;52.528;5.704;2023-11-19T03:09:45;14.00;73.60
81800;DHT22;71195;52.528;5.704;2023-11-19T03:12:15;14.10;73.60
81800;DHT22;71195;52.528;5.704;2023-11-19T03:14:47;14.00;73.40
81800;DHT22;71195;52.528;5.704;2023-11-19T03:17:16;14.00;73.50
81800;DHT22;71195;52.528;5.704;2023-11-19T03:19:46;14.00;73.60
81800;DHT22;71195;52.528;5.704;2023-11-19T03:22:15;14.00;73.60
81800;DHT22;71195;52.528;5.704;2023-11-19T03:24:44;14.00;73.60
81800;DHT22;71195;52.528;5.704;2023-11-19T03:27:13;13.90;73.60
81800;DHT22;71195;52.528;5.704;2023-11-19T03:29:43;13.90;73.60
81800;DHT22;71195;52.528;5.704;2023-11-19T03:32:14;13.90;73.60
81800;DHT22;71195;52.528;5.704;2023-11-19T03:34:44;13.90;73.50
81800;DHT22;71195;52.528;5.704;2023-11-19T03:37:13;13.90;73.50
81800;DHT22;71195;52.528;5.704;2023-11-19T03:39:43;13.80;73.60
81800;DHT22;71195;52.528;5.704;2023-11-19T03:42:12;13.80;73.60
81800;DHT22;71195;52.528;5.704;2023-11-19T03:44:42;13.80;73.40
81800;DHT22;71195;52.528;5.704;2023-11-19T03:47:13;13.80;73.40
81800;DHT22;71195;52.528;5.704;2023-11-19T03:49:42;13.70;73.40
81800;DHT22;71195;52.528;5.704;2023-11-19T03:52:15;13.70;73.40
81800;DHT22;71195;52.528;5.704;2023-11-19T03:54:45;13.70;73.40
81800;DHT22;71195;52.528;5.704;2023-11-19T03:57:14;13.60;73.30
81800;DHT22;71195;52.528;5.704;2023-11-19T03:59:43;13.60;73.40
81800;DHT22;71195;52.528;5.704;2023-11-19T04:02:15;13.60;73.30
81800;DHT22;71195;52.528;5.704;2023-11-19T04:04:45;13.60;73.30
81800;DHT22;71195;52.528;5.704;2023-11-19T04:07:14;13.50;73.30
81800;DHT22;71195;52.528;5.704;2023-11-19T04:09:43;13.50;73.30
81800;DHT22;71195;52.528;5.704;2023-11-19T04:12:13;13.50;73.30
81800;DHT22;71195;52.528;5.704;2023-11-19T04:14:42;13.50;73.30
81800;DHT22;71195;52.528;5.704;2023-11-19T04:17:11;13.50;73.20
81800;DHT22;71195;52.528;5.704;2023-11-19T04:19:43;13.50;73.20
81800;DHT22;71195;52.528;5.704;2023-11-19T04:22:12;13.50;73.20
81800;DHT22;71195;52.528;5.704;2023-11-19T04:24:42;13.50;73.10
81800;DHT22;71195;52.528;5.704;2023-11-19T04:27:11;13.50;73.00
81800;DHT22;71195;52.528;5.704;2023-11-19T04:29:41;13.50;72.90
81800;DHT22;71195;52.528;5.704;2023-11-19T04:32:12;13.50;72.90
81800;DHT22;71195;52.528;5.704;2023-11-19T04:34:44;13.50;72.90
81800;DHT22;71195;52.528;5.704;2023-11-19T04:37:13;13.50;73.00
81800;DHT22;71195;52.528;5.704;2023-11-19T04:39:44;13.50;72.90
81800;DHT22;71195;52.528;5.704;2023-11-19T04:42:13;13.50;72.90
81800;DHT22;71195;52.528;5.704;2023-11-19T04:44:43;13.50;72.80
81800;DHT22;71195;52.528;5.704;2023-11-19T04:47:12;13.50;72.80
81800;DHT22;71195;52.528;5.704;2023-11-19T04:49:44;13.50;72.80
81800;DHT22;71195;52.528;5.704;2023-11-19T04:52:13;13.50;72.80
81800;DHT22;71195;52.528;5.704;2023-11-19T04:54:42;13.50;72.70
81800;DHT22;71195;52.528;5.704;2023-11-19T04:57:12;13.60;72.70
81800;DHT22;71195;52.528;5.704;2023-11-19T04:59:41;13.50;72.70
81800;DHT22;71195;52.528;5.704;2023-11-19T05:02:10;13.50;72.70
81800;DHT22;71195;52.528;5.704;2023-11-19T05:04:45;13.50;72.60
81800;DHT22;71195;52.528;5.704;2023-11-19T05:07:15;13.50;72.60
81800;DHT22;71195;52.528;5.704;2023-11-19T05:09:44;13.50;72.60
81800;DHT22;71195;52.528;5.704;2023-11-19T05:12:13;13.50;72.60
81800;DHT22;71195;52.528;5.704;2023-11-19T05:14:42;13.50;72.60
81800;DHT22;71195;52.528;5.704;2023-11-19T05:17:15;13.50;72.60
81800;DHT22;71195;52.528;5.704;2023-11-19T05:19:47;13.50;72.50
81800;DHT22;71195;52.528;5.704;2023-11-19T05:22:17;13.50;72.60
81800;DHT22;71195;52.528;5.704;2023-11-19T05:24:46;13.50;72.50
81800;DHT22;71195;52.528;5.704;2023-11-19T05:27:16;13.40;72.60
81800;DHT22;71195;52.528;5.704;2023-11-19T05:29:45;13.40;72.50
81800;DHT22;71195;52.528;5.704;2023-11-19T05:32:14;13.40;72.50
81800;DHT22;71195;52.528;5.704;2023-11-19T05:34:43;13.30;72.50
81800;DHT22;71195;52.528;5.704;2023-11-19T05:37:15;13.30;72.50
81800;DHT22;71195;52.528;5.704;2023-11-19T05:39:45;13.30;72.50
81800;DHT22;71195;52.528;5.704;2023-11-19T05:42:14;13.30;72.50
81800;DHT22;71195;52.528;5.704;2023-11-19T05:44:43;13.30;72.50
81800;DHT22;71195;52.528;5.704;2023-11-19T05:47:12;13.30;72.40
81800;DHT22;71195;52.528;5.704;2023-11-19T05:49:41;13.30;72.40
81800;DHT22;71195;52.528;5.704;2023-11-19T05:52:11;13.30;72.30
81800;DHT22;71195;52.528;5.704;2023-11-19T05:54:42;13.30;72.20
81800;DHT22;71195;52.528;5.704;2023-11-19T05:57:16;13.30;72.20
81800;DHT22;71195;52.528;5.704;2023-11-19T05:59:48;13.30;72.20
81800;DHT22;71195;52.528;5.704;2023-11-19T06:02:20;13.40;72.20
81800;DHT22;71195;52.528;5.704;2023-11-19T06:04:49;13.40;72.10
81800;DHT22;71195;52.528;5.704;2023-11-19T06:07:18;13.30;72.10
81800;DHT22;71195;52.528;5.704;2023-11-19T06:09:49;13.30;72.10
81800;DHT22;71195;52.528;5.704;2023-11-19T06:12:19;13.40;72.00
81800;DHT22;71195;52.528;5.704;2023-11-19T06:14:48;13.40;72.00
81800;DHT22;71195;52.528;5.704;2023-11-19T06:17:17;13.30;71.90
81800;DHT22;71195;52.528;5.704;2023-11-19T06:19:46;13.30;71.90
81800;DHT22;71195;52.528;5.704;2023-11-19T06:22:15;13.40;71.90
81800;DHT22;71195;52.528;5.704;2023-11-19T06:24:44;13.30;71.80
81800;DHT22;71195;52.528;5.704;2023-11-19T06:27:16;13.40;71.80
81800;DHT22;71195;52.528;5.704;2023-11-19T06:29:45;13.40;71.80
81800;DHT22;71195;52.528;5.704;2023-11-19T06:32:15;13.30;71.70
81800;DHT22;71195;52.528;5.704;2023-11-19T06:34:44;13.30;71.80
81800;DHT22;71195;52.528;5.704;2023-11-19T06:37:13;13.30;71.80
81800;DHT22;71195;52.528;5.704;2023-11-19T06:39:42;13.30;71.80
81800;DHT22;71195;52.528;5.704;2023-11-19T06:42:11;13.30;71.80
81800;DHT22;71195;52.528;5.704;2023-11-19T06:44:43;13.30;71.70
81800;DHT22;71195;52.528;5.704;2023-11-19T06:47:12;13.20;71.70
81800;DHT22;71195;52.528;5.704;2023-11-19T06:49:43;13.20;71.70
81800;DHT22;71195;52.528;5.704;2023-11-19T06:52:13;13.10;71.70
81800;DHT22;71195;52.528;5.704;2023-11-19T06:54:42;13.10;71.70
81800;DHT22;71195;52.528;5.704;2023-11-19T06:57:12;13.10;71.60
81800;DHT22;71195;52.528;5.704;2023-11-19T06:59:43;13.10;71.60
81800;DHT22;71195;52.528;5.704;2023-11-19T07:02:12;13.10;71.60
81800;DHT22;71195;52.528;5.704;2023-11-19T07:04:42;13.10;71.60
81800;DHT22;71195;52.528;5.704;2023-11-19T07:07:11;13.10;71.60
81800;DHT22;71195;52.528;5.704;2023-11-19T07:09:41;13.10;71.50
81800;DHT22;71195;52.528;5.704;2023-11-19T07:12:10;13.10;71.50
81800;DHT22;71195;52.528;5.704;2023-11-19T07:14:43;13.10;71.50
81800;DHT22;71195;52.528;5.704;2023-11-19T07:17:12;13.10;71.40
81800;DHT22;71195;52.528;5.704;2023-11-19T07:19:41;13.10;71.40
81800;DHT22;71195;52.528;5.704;2023-11-19T07:22:10;13.10;71.30
81800;DHT22;71195;52.528;5.704;2023-11-19T07:24:41;13.10;71.30
81800;DHT22;71195;52.528;5.704;2023-11-19T07:27:10;13.10;71.20
81800;DHT22;71195;52.528;5.704;2023-11-19T07:29:39;13.10;71.30
81800;DHT22;71195;52.528;5.704;2023-11-19T07:32:11;13.10;71.20
81800;DHT22;71195;52.528;5.704;2023-11-19T07:34:40;13.10;71.20
81800;DHT22;71195;52.528;5.704;2023-11-19T07:37:10;13.10;71.20
81800;DHT22;71195;52.528;5.704;2023-11-19T07:39:39;13.10;71.10
81800;DHT22;71195;52.528;5.704;2023-11-19T07:42:08;13.10;71.10
81800;DHT22;71195;52.528;5.704;2023-11-19T07:44:38;13.10;71.10
81800;DHT22;71195;52.528;5.704;2023-11-19T07:47:07;13.10;71.10
81800;DHT22;71195;52.528;5.704;2023-11-19T07:49:39;13.10;71.10
81800;DHT22;71195;52.528;5.704;2023-11-19T07:52:09;13.10;71.10
81800;DHT22;71195;52.528;5.704;2023-11-19T07:54:39;13.10;71.00
81800;DHT22;71195;52.528;5.704;2023-11-19T07:57:08;13.20;71.00
81800;DHT22;71195;52.528;5.704;2023-11-19T07:59:37;13.20;71.00
81800;DHT22;71195;52.528;5.704;2023-11-19T08:02:06;13.20;71.00
81800;DHT22;71195;52.528;5.704;2023-11-19T08:04:35;13.10;71.00
81800;DHT22;71195;52.528;5.704;2023-11-19T08:07:08;13.20;71.10
81800;DHT22;71195;52.528;5.704;2023-11-19T08:09:37;13.20;71.00
81800;DHT22;71195;52.528;5.704;2023-11-19T08:12:06;13.30;71.00
81800;DHT22;71195;52.528;5.704;2023-11-19T08:14:36;13.30;71.00
81800;DHT22;71195;52.528;5.704;2023-11-19T08:17:05;13.30;70.90
81800;DHT22;71195;52.528;5.704;2023-11-19T08:19:34;13.30;70.90
81800;DHT22;71195;52.528;5.704;2023-11-19T08:22:03;13.30;70.90
81800;DHT22;71195;52.528;5.704;2023-11-19T08:24:35;13.30;70.90
81800;DHT22;71195;52.528;5.704;2023-11-19T08:27:04;13.30;70.90
81800;DHT22;71195;52.528;5.704;2023-11-19T08:29:34;13.30;70.90
81800;DHT22;71195;52.528;5.704;2023-11-19T08:32:04;13.30;70.90
81800;DHT22;71195;52.528;5.704;2023-11-19T08:34:33;13.30;70.90
81800;DHT22;71195;52.528;5.704;2023-11-19T08:37:02;13.30;70.90
81800;DHT22;71195;52.528;5.704;2023-11-19T08:39:34;13.30;70.90
81800;DHT22;71195;52.528;5.704;2023-11-19T08:42:04;13.30;70.90
81800;DHT22;71195;52.528;5.704;2023-11-19T08:44:33;13.30;70.90
81800;DHT22;71195;52.528;5.704;2023-11-19T08:47:02;13.30;71.00
81800;DHT22;71195;52.528;5.704;2023-11-19T08:49:31;13.30;70.90
81800;DHT22;71195;52.528;5.704;2023-11-19T08:52:00;13.30;70.80
81800;DHT22;71195;52.528;5.704;2023-11-19T08:54:29;13.30;70.90
81800;DHT22;71195;52.528;5.704;2023-11-19T08:57:01;13.30;70.90
81800;DHT22;71195;52.528;5.704;2023-11-19T08:59:33;13.40;70.80
81800;DHT22;71195;52.528;5.704;2023-11-19T09:02:04;13.40;70.70
81800;DHT22;71195;52.528;5.704;2023-11-19T09:04:33;13.50;70.70
81800;DHT22;71195;52.528;5.704;2023-11-19T09:07:02;13.50;70.70
81800;DHT22;71195;52.528;5.704;2023-11-19T09:09:32;13.50;70.70
81800;DHT22;71195;52.528;5.704;2023-11-19T09:12:05;13.50;70.60
81800;DHT22;71195;52.528;5.704;2023-11-19T09:14:34;13.50;70.60
81800;DHT22;71195;52.528;5.704;2023-11-19T09:17:04;13.60;70.50
81800;DHT22;71195;52.528;5.704;2023-11-19T09:19:33;13.60;70.50
81800;DHT22;71195;52.528;5.704;2023-11-19T09:22:02;13.70;70.40
81800;DHT22;71195;52.528;5.704;2023-11-19T09:24:31;13.70;70.30
81800;DHT22;71195;52.528;5.704;2023-11-19T09:27:00;13.80;70.30
81800;DHT22;71195;52.528;5.704;2023-11-19T09:29:34;13.90;70.20
81800;DHT22;71195;52.528;5.704;2023-11-19T09:32:04;13.90;70.20
81800;DHT22;71195;52.528;5.704;2023-11-19T09:34:33;13.90;70.20
81800;DHT22;71195;52.528;5.704;2023-11-19T09:37:03;13.90;70.20
81800;DHT22;71195;52.528;5.704;2023-11-19T09:39:32;13.90;70.20
81800;DHT22;71195;52.528;5.704;2023-11-19T09:42:01;13.90;70.20
81800;DHT22;71195;52.528;5.704;2023-11-19T09:44:30;13.90;70.20
81800;DHT22;71195;52.528;5.704;2023-11-19T09:47:02;14.00;70.20
81800;DHT22;71195;52.528;5.704;2023-11-19T09:49:31;13.90;70.20
81800;DHT22;71195;52.528;5.704;2023-11-19T09:52:01;13.90;70.20
81800;DHT22;71195;52.528;5.704;2023-11-19T09:54:30;13.90;70.40
81800;DHT22;71195;52.528;5.704;2023-11-19T09:56:59;14.00;70.20
81800;DHT22;71195;52.528;5.704;2023-11-19T09:59:30;14.00;70.20
81800;DHT22;71195;52.528;5.704;2023-11-19T10:02:02;14.00;70.20
81800;DHT22;71195;52.528;5.704;2023-11-19T10:04:35;14.00;70.20
81800;DHT22;71195;52.528;5.704;2023-11-19T10:07:04;14.00;70.20
81800;DHT22;71195;52.528;5.704;2023-11-19T10:09:34;14.00;70.20
81800;DHT22;71195;52.528;5.704;2023-11-19T10:12:03;14.10;70.20
81800;DHT22;71195;52.528;5.704;2023-11-19T10:14:35;14.10;70.10
81800;DHT22;71195;52.528;5.704;2023-11-19T10:17:10;14.10;70.00
81800;DHT22;71195;52.528;5.704;2023-11-19T10:19:40;14.10;70.00
81800;DHT22;71195;52.528;5.704;2023-11-19T10:22:10;14.20;70.00
81800;DHT22;71195;52.528;5.704;2023-11-19T10:24:41;14.20;70.00
81800;DHT22;71195;52.528;5.704;2023-11-19T10:27:10;14.20;70.00
81800;DHT22;71195;52.528;5.704;2023-11-19T10:29:42;14.20;70.00
81800;DHT22;71195;52.528;5.704;2023-11-19T10:32:15;14.20;70.10
81800;DHT22;71195;52.528;5.704;2023-11-19T10:34:44;14.20;70.00
81800;DHT22;71195;52.528;5.704;2023-11-19T10:37:27;14.20;70.00
81800;DHT22;71195;52.528;5.704;2023-11-19T10:39:58;14.20;70.00
81800;DHT22;71195;52.528;5.704;2023-11-19T10:42:27;14.20;70.00
81800;DHT22;71195;52.528;5.704;2023-11-19T10:44:56;14.20;70.10
81800;DHT22;71195;52.528;5.704;2023-11-19T10:47:29;14.20;70.10
81800;DHT22;71195;52.528;5.704;2023-11-19T10:49:59;14.20;70.20
81800;DHT22;71195;52.528;5.704;2023-11-19T10:52:28;14.10;70.20
81800;DHT22;71195;52.528;5.704;2023-11-19T10:55:00;14.20;70.20
81800;DHT22;71195;52.528;5.704;2023-11-19T10:57:35;14.20;70.30
81800;DHT22;71195;52.528;5.704;2023-11-19T11:00:08;14.10;70.30
81800;DHT22;71195;52.528;5.704;2023-11-19T11:02:45;14.10;70.50
81800;DHT22;71195;52.528;5.704;2023-11-19T11:05:16;14.10;70.50
81800;DHT22;71195;52.528;5.704;2023-11-19T11:07:47;14.00;70.70
81800;DHT22;71195;52.528;5.704;2023-11-19T11:10:18;14.00;70.70
81800;DHT22;71195;52.528;5.704;2023-11-19T11:12:49;14.00;70.70
81800;DHT22;71195;52.528;5.704;2023-11-19T11:15:25;13.90;70.70
81800;DHT22;71195;52.528;5.704;2023-11-19T11:17:59;13.90;70.70
81800;DHT22;71195;52.528;5.704;2023-11-19T11:20:31;13.90;70.80
81800;DHT22;71195;52.528;5.704;2023-11-19T11:23:15;13.90;70.80
81800;DHT22;71195;52.528;5.704;2023-11-19T11:25:56;13.90;70.70
81800;DHT22;71195;52.528;5.704;2023-11-19T11:28:35;13.90;70.60
81800;DHT22;71195;52.528;5.704;2023-11-19T11:31:13;13.90;70.50
81800;DHT22;71195;52.528;5.704;2023-11-19T11:34:05;13.90;70.50
81800;DHT22;71195;52.528;5.704;2023-11-19T11:36:38;14.00;70.40
81800;DHT22;71195;52.528;5.704;2023-11-19T11:39:11;14.00;70.40
81800;DHT22;71195;52.528;5.704;2023-11-19T11:41:41;14.00;70.40
81800;DHT22;71195;52.528;5.704;2023-11-19T11:44:11;14.10;70.30
81800;DHT22;71195;52.528;5.704;2023-11-19T11:46:55;14.10;70.20
81800;DHT22;71195;52.528;5.704;2023-11-19T11:49:31;14.10;70.10
81800;DHT22;71195;52.528;5.704;2023-11-19T11:52:02;14.20;70.10
81800;DHT22;71195;52.528;5.704;2023-11-19T11:54:41;14.20;70.10
81800;DHT22;71195;52.528;5.704;2023-11-19T11:57:11;14.20;70.10
81800;DHT22;71195;52.528;5.704;2023-11-19T11:59:46;14.20;70.00
81800;DHT22;71195;52.528;5.704;2023-11-19T12:02:17;14.20;70.00
81800;DHT22;71195;52.528;5.704;2023-11-19T12:04:50;14.30;69.90
81800;DHT22;71195;52.528;5.704;2023-11-19T12:07:21;14.30;69.70
81800;DHT22;71195;52.528;5.704;2023-11-19T12:09:52;14.40;69.60
81800;DHT22;71195;52.528;5.704;2023-11-19T12:12:23;14.40;69.60
81800;DHT22;71195;52.528;5.704;2023-11-19T12:15:03;14.40;69.50
81800;DHT22;71195;52.528;5.704;2023-11-19T12:17:42;14.40;69.50
81800;DHT22;71195;52.528;5.704;2023-11-19T12:20:19;14.40;69.50
81800;DHT22;71195;52.528;5.704;2023-11-19T12:22:49;14.40;69.50
81800;DHT22;71195;52.528;5.704;2023-11-19T12:25:19;14.40;69.40
81800;DHT22;71195;52.528;5.704;2023-11-19T12:27:49;14.40;69.40
81800;DHT22;71195;52.528;5.704;2023-11-19T12:30:21;14.40;69.40
81800;DHT22;71195;52.528;5.704;2023-11-19T12:32:52;14.40;69.40
81800;DHT22;71195;52.528;5.704;2023-11-19T12:35:24;14.40;69.40
81800;DHT22;71195;52.528;5.704;2023-11-19T12:37:53;14.40;69.30
81800;DHT22;71195;52.528;5.704;2023-11-19T12:40:24;14.40;69.20
81800;DHT22;71195;52.528;5.704;2023-11-19T12:42:55;14.40;69.20
81800;DHT22;71195;52.528;5.704;2023-11-19T12:45:34;14.40;69.20
81800;DHT22;71195;52.528;5.704;2023-11-19T12:48:07;14.30;69.10
81800;DHT22;71195;52.528;5.704;2023-11-19T12:51:03;14.30;69.30
81800;DHT22;71195;52.528;5.704;2023-11-19T12:53:46;14.30;69.30
81800;DHT22;71195;52.528;5.704;2023-11-19T12:56:16;14.30;69.30
81800;DHT22;71195;52.528;5.704;2023-11-19T12:58:45;14.30;69.30
81800;DHT22;71195;52.528;5.704;2023-11-19T13:01:17;14.30;69.30
81800;DHT22;71195;52.528;5.704;2023-11-19T13:03:47;14.30;69.20
81800;DHT22;71195;52.528;5.704;2023-11-19T13:06:20;14.30;69.10
81800;DHT22;71195;52.528;5.704;2023-11-19T13:08:51;14.30;69.10
81800;DHT22;71195;52.528;5.704;2023-11-19T13:11:33;14.40;69.10
81800;DHT22;71195;52.528;5.704;2023-11-19T13:14:04;14.40;69.00
81800;DHT22;71195;52.528;5.704;2023-11-19T13:16:36;14.30;69.10
81800;DHT22;71195;52.528;5.704;2023-11-19T13:19:06;14.30;69.00
81800;DHT22;71195;52.528;5.704;2023-11-19T13:21:40;14.30;69.20
81800;DHT22;71195;52.528;5.704;2023-11-19T13:24:12;14.30;69.00
81800;DHT22;71195;52.528;5.704;2023-11-19T13:26:42;14.30;69.00
81800;DHT22;71195;52.528;5.704;2023-11-19T13:29:15;14.30;69.10
81800;DHT22;71195;52.528;5.704;2023-11-19T13:31:44;14.30;69.10
81800;DHT22;71195;52.528;5.704;2023-11-19T13:34:16;14.20;69.20
81800;DHT22;71195;52.528;5.704;2023-11-19T13:36:50;14.10;69.40
81800;DHT22;71195;52.528;5.704;2023-11-19T13:39:19;14.10;69.50
81800;DHT22;71195;52.528;5.704;2023-11-19T13:41:49;14.10;69.50
81800;DHT22;71195;52.528;5.704;2023-11-19T13:44:18;14.00;69.60
81800;DHT22;71195;52.528;5.704;2023-11-19T13:46:47;13.90;69.70
81800;DHT22;71195;52.528;5.704;2023-11-19T13:49:17;13.90;69.80
81800;DHT22;71195;52.528;5.704;2023-11-19T13:51:46;13.90;69.90
81800;DHT22;71195;52.528;5.704;2023-11-19T13:54:18;13.80;70.00
81800;DHT22;71195;52.528;5.704;2023-11-19T13:56:48;13.80;70.10
81800;DHT22;71195;52.528;5.704;2023-11-19T13:59:20;13.70;70.20
81800;DHT22;71195;52.528;5.704;2023-11-19T14:01:49;13.70;70.10
81800;DHT22;71195;52.528;5.704;2023-11-19T14:04:18;13.70;70.20
81800;DHT22;71195;52.528;5.704;2023-11-19T14:06:47;13.70;70.30
81800;DHT22;71195;52.528;5.704;2023-11-19T14:09:19;13.70;70.20
81800;DHT22;71195;52.528;5.704;2023-11-19T14:11:48;13.70;70.10
81800;DHT22;71195;52.528;5.704;2023-11-19T14:14:17;13.70;70.10
81800;DHT22;71195;52.528;5.704;2023-11-19T14:16:46;13.80;70.00
81800;DHT22;71195;52.528;5.704;2023-11-19T14:19:15;13.80;69.90
81800;DHT22;71195;52.528;5.704;2023-11-19T14:21:44;13.80;69.90
81800;DHT22;71195;52.528;5.704;2023-11-19T14:24:13;13.80;70.00
81800;DHT22;71195;52.528;5.704;2023-11-19T14:26:45;13.80;70.10
81800;DHT22;71195;52.528;5.704;2023-11-19T14:29:16;13.80;70.10
81800;DHT22;71195;52.528;5.704;2023-11-19T14:31:45;13.80;70.10
81800;DHT22;71195;52.528;5.704;2023-11-19T14:34:14;13.90;70.00
81800;DHT22;71195;52.528;5.704;2023-11-19T14:36:43;13.90;70.00
81800;DHT22;71195;52.528;5.704;2023-11-19T14:39:13;13.90;70.00
81800;DHT22;71195;52.528;5.704;2023-11-19T14:42:00;13.90;70.00
81800;DHT22;71195;52.528;5.704;2023-11-19T14:44:36;13.90;70.00
81800;DHT22;71195;52.528;5.704;2023-11-19T14:47:05;13.90;70.00
81800;DHT22;71195;52.528;5.704;2023-11-19T14:49:35;13.90;69.90
81800;DHT22;71195;52.528;5.704;2023-11-19T14:52:04;13.90;70.00
81800;DHT22;71195;52.528;5.704;2023-11-19T14:54:34;13.90;69.90
81800;DHT22;71195;52.528;5.704;2023-11-19T14:57:07;13.90;69.90
81800;DHT22;71195;52.528;5.704;2023-11-19T14:59:37;13.90;69.90
81800;DHT22;71195;52.528;5.704;2023-11-19T15:02:06;13.90;69.90
81800;DHT22;71195;52.528;5.704;2023-11-19T15:04:36;13.90;69.90
81800;DHT22;71195;52.528;5.704;2023-11-19T15:07:07;13.90;69.90
81800;DHT22;71195;52.528;5.704;2023-11-19T15:09:36;13.90;69.80
81800;DHT22;71195;52.528;5.704;2023-11-19T15:12:08;13.90;69.90
81800;DHT22;71195;52.528;5.704;2023-11-19T15:14:37;13.90;69.90
81800;DHT22;71195;52.528;5.704;2023-11-19T15:17:06;13.90;69.90
81800;DHT22;71195;52.528;5.704;2023-11-19T15:19:37;13.90;69.80
81800;DHT22;71195;52.528;5.704;2023-11-19T15:22:06;13.90;69.80
81800;DHT22;71195;52.528;5.704;2023-11-19T15:24:37;13.90;69.80
81800;DHT22;71195;52.528;5.704;2023-11-19T15:27:10;13.90;69.90
81800;DHT22;71195;52.528;5.704;2023-11-19T15:29:39;13.80;69.90
81800;DHT22;71195;52.528;5.704;2023-11-19T15:32:08;13.90;69.90
81800;DHT22;71195;52.528;5.704;2023-11-19T15:34:37;13.80;69.90
81800;DHT22;71195;52.528;5.704;2023-11-19T15:37:07;13.80;69.90
81800;DHT22;71195;52.528;5.704;2023-11-19T15:39:39;13.70;70.10
81800;DHT22;71195;52.528;5.704;2023-11-19T15:42:10;13.70;70.10
81800;DHT22;71195;52.528;5.704;2023-11-19T15:44:40;13.60;70.10
81800;DHT22;71195;52.528;5.704;2023-11-19T15:47:09;13.60;70.20
81800;DHT22;71195;52.528;5.704;2023-11-19T15:49:42;13.60;70.30
81800;DHT22;71195;52.528;5.704;2023-11-19T15:52:11;13.60;70.30